Time;durP1;ratioP1;P1;durP2;ratioP2;P2;SDS_P1;SDS_P2;PMS_P1;PMS_P2;Temp;Humidity;BMP_temperature;BMP_pressure;BME280_temperature;BME280_humidity;BME280_pressure;Samples;Min_cycle;Max_cycle;Signal;HPM_P1;HPM_P2
2022/05/12 00:01:36;;;;;;;4.60;0.40;;;;;;;;;;5281986;28;20189;-69
2022/05/12 00:04:07;;;;;;;4.15;0.50;;;;;;;;;;5281463;28;20286;-70
2022/05/12 00:06:38;;;;;;;3.90;0.40;;;;;;;;;;5280618;28;20405;-68
2022/05/12 00:09:09;;;;;;;4.80;0.40;;;;;;;;;;5280856;28;20698;-68
2022/05/12 00:11:40;;;;;;;3.90;0.30;;;;;;;;;;5281748;28;20280;-68
2022/05/12 00:14:12;;;;;;;6.47;0.43;;;;;;;;;;5280849;28;20367;-68
2022/05/12 00:16:43;;;;;;;6.40;0.50;;;;;;;;;;5281496;28;20263;-68
2022/05/12 00:19:14;;;;;;;7.05;0.60;;;;;;;;;;5280722;28;20048;-69
2022/05/12 00:21:45;;;;;;;3.90;0.40;;;;;;;;;;5281726;28;20255;-69
2022/05/12 00:24:16;;;;;;;4.40;0.45;;;;;;;;;;5281533;28;20039;-69
2022/05/12 00:26:48;;;;;;;3.75;0.35;;;;;;;;;;5281124;28;20016;-69
2022/05/12 00:29:19;;;;;;;5.47;0.50;;;;;;;;;;5281347;28;20502;-69
2022/05/12 00:31:50;;;;;;;3.45;0.65;;;;;;;;;;5281878;28;20304;-69
2022/05/12 00:34:22;;;;;;;6.43;0.93;;;;;;;;;;5280354;28;20016;-69
2022/05/12 00:36:53;;;;;;;2.37;0.50;;;;;;;;;;5281953;28;20494;-68
2022/05/12 00:39:24;;;;;;;4.70;0.40;;;;;;;;;;5281310;28;20310;-69
2022/05/12 00:41:55;;;;;;;4.45;0.40;;;;;;;;;;5281159;28;20335;-69
2022/05/12 00:44:26;;;;;;;4.28;0.40;;;;;;;;;;5281103;28;20776;-69
2022/05/12 00:46:57;;;;;;;3.13;0.40;;;;;;;;;;5281645;28;20285;-68
2022/05/12 00:49:30;;;;;;;2.58;0.40;;;;;;;;;;5280333;28;20395;-67
2022/05/12 00:52:06;;;;;;;2.83;0.40;;;;;;;;;;5281495;28;20287;-68
2022/05/12 00:54:47;;;;;;;3.95;0.82;;;;;;;;;;5280709;28;20046;-68
2022/05/12 00:57:29;;;;;;;3.60;0.40;;;;;;;;;;5280979;28;20052;-68
2022/05/12 01:00:03;;;;;;;4.20;0.50;;;;;;;;;;5281324;28;20074;-68
2022/05/12 01:02:34;;;;;;;5.68;0.80;;;;;;;;;;5280369;28;20043;-68
2022/05/12 01:05:06;;;;;;;3.83;0.75;;;;;;;;;;5281159;28;20033;-69
2022/05/12 01:07:38;;;;;;;2.95;0.40;;;;;;;;;;5281017;28;20670;-69
2022/05/12 01:10:09;;;;;;;2.55;0.50;;;;;;;;;;5280586;28;20046;-68
2022/05/12 01:12:43;;;;;;;4.13;0.50;;;;;;;;;;5281190;28;20070;-69
2022/05/12 01:15:14;;;;;;;3.75;0.40;;;;;;;;;;5280519;28;20020;-69
2022/05/12 01:17:46;;;;;;;5.50;0.50;;;;;;;;;;5280785;28;20048;-69
2022/05/12 01:20:17;;;;;;;4.50;0.40;;;;;;;;;;5280899;28;20016;-69
2022/05/12 01:22:58;;;;;;;6.93;0.70;;;;;;;;;;5284062;28;20027;-68
2022/05/12 01:25:30;;;;;;;4.47;0.50;;;;;;;;;;5285043;28;20033;-68
2022/05/12 01:28:01;;;;;;;6.25;0.73;;;;;;;;;;5285418;28;20005;-69
2022/05/12 01:30:32;;;;;;;7.60;0.60;;;;;;;;;;5284103;28;20029;-68
2022/05/12 01:33:04;;;;;;;6.35;0.90;;;;;;;;;;5285169;28;20734;-68
2022/05/12 01:35:35;;;;;;;6.95;0.80;;;;;;;;;;5285210;28;20055;-68
2022/05/12 01:38:06;;;;;;;7.23;1.07;;;;;;;;;;5284248;28;20037;-68
2022/05/12 01:40:38;;;;;;;7.13;0.70;;;;;;;;;;5284916;28;20790;-68
2022/05/12 01:43:10;;;;;;;12.05;1.13;;;;;;;;;;5284792;28;20382;-67
2022/05/12 01:45:41;;;;;;;9.40;1.45;;;;;;;;;;5284236;28;20078;-68
2022/05/12 01:48:13;;;;;;;4.65;0.70;;;;;;;;;;5284791;28;20040;-67
2022/05/12 01:50:45;;;;;;;12.60;0.77;;;;;;;;;;5283926;28;20123;-69
2022/05/12 01:53:17;;;;;;;8.25;0.80;;;;;;;;;;5284526;28;20104;-68
2022/05/12 01:55:49;;;;;;;7.32;0.80;;;;;;;;;;5284921;28;20439;-70
2022/05/12 01:58:21;;;;;;;7.00;1.00;;;;;;;;;;5283832;28;20555;-69
2022/05/12 02:00:52;;;;;;;6.10;0.63;;;;;;;;;;5285050;28;20048;-68
2022/05/12 02:03:23;;;;;;;7.70;0.80;;;;;;;;;;5284223;28;20108;-69
2022/05/12 02:05:54;;;;;;;7.95;1.17;;;;;;;;;;5283864;28;20013;-69
2022/05/12 02:08:25;;;;;;;8.68;0.70;;;;;;;;;;5284129;28;20146;-70
2022/05/12 02:10:56;;;;;;;8.27;0.80;;;;;;;;;;5284499;28;20017;-69
2022/05/12 02:13:28;;;;;;;9.32;1.15;;;;;;;;;;5283214;28;20439;-68
2022/05/12 02:15:59;;;;;;;8.43;1.23;;;;;;;;;;5284529;28;20009;-68
2022/05/12 02:18:30;;;;;;;7.33;0.87;;;;;;;;;;5282560;28;20294;-68
2022/05/12 02:21:01;;;;;;;11.60;1.27;;;;;;;;;;5282357;28;20266;-68
2022/05/12 02:23:32;;;;;;;6.38;1.10;;;;;;;;;;5282833;28;20539;-69
2022/05/12 02:26:03;;;;;;;8.38;0.80;;;;;;;;;;5282198;28;20459;-69
2022/05/12 02:28:35;;;;;;;7.38;0.70;;;;;;;;;;5282822;28;20349;-68
2022/05/12 02:31:06;;;;;;;7.38;1.05;;;;;;;;;;5282733;28;20267;-69
2022/05/12 02:33:38;;;;;;;9.45;1.00;;;;;;;;;;5281735;28;20419;-69
2022/05/12 02:36:09;;;;;;;7.18;0.88;;;;;;;;;;5282844;28;20090;-69
2022/05/12 02:38:41;;;;;;;5.05;0.73;;;;;;;;;;5282748;28;20075;-69
2022/05/12 02:41:12;;;;;;;8.13;0.90;;;;;;;;;;5281775;28;20024;-69
2022/05/12 02:43:43;;;;;;;7.60;0.70;;;;;;;;;;5282738;28;20299;-69
2022/05/12 02:46:14;;;;;;;8.65;1.30;;;;;;;;;;5282682;28;20009;-69
2022/05/12 02:48:46;;;;;;;5.32;1.05;;;;;;;;;;5281691;28;20081;-69
2022/05/12 02:51:17;;;;;;;7.15;0.70;;;;;;;;;;5282459;28;20444;-69
2022/05/12 02:53:48;;;;;;;9.23;1.40;;;;;;;;;;5281633;28;20024;-69
2022/05/12 02:56:19;;;;;;;10.98;1.27;;;;;;;;;;5282003;28;20023;-69
2022/05/12 02:58:51;;;;;;;8.27;1.10;;;;;;;;;;5282870;28;20024;-69
2022/05/12 03:01:22;;;;;;;12.23;1.42;;;;;;;;;;5281220;28;20599;-68
2022/05/12 03:03:53;;;;;;;7.18;1.15;;;;;;;;;;5282492;28;20336;-69
2022/05/12 03:06:24;;;;;;;11.68;1.98;;;;;;;;;;5281737;28;20285;-69
2022/05/12 03:08:56;;;;;;;5.25;1.15;;;;;;;;;;5281834;28;20310;-69
2022/05/12 03:11:28;;;;;;;8.48;1.60;;;;;;;;;;5281953;28;20495;-69
2022/05/12 03:13:59;;;;;;;13.52;1.85;;;;;;;;;;5282379;28;20100;-69
2022/05/12 03:16:31;;;;;;;7.45;1.30;;;;;;;;;;5281057;28;20048;-68
2022/05/12 03:19:03;;;;;;;10.13;2.10;;;;;;;;;;5247557;28;1005849;-70
2022/05/12 03:21:34;;;;;;;7.63;1.30;;;;;;;;;;5283151;28;20063;-69
2022/05/12 03:24:05;;;;;;;12.18;2.25;;;;;;;;;;5282373;28;20024;-69
2022/05/12 03:26:36;;;;;;;12.13;2.63;;;;;;;;;;5283198;28;20024;-69
2022/05/12 03:29:08;;;;;;;8.68;2.05;;;;;;;;;;5282342;28;20044;-69
2022/05/12 03:31:39;;;;;;;11.65;2.10;;;;;;;;;;5282827;28;20266;-69
2022/05/12 03:34:10;;;;;;;13.60;3.10;;;;;;;;;;5282857;28;20077;-70
2022/05/12 03:36:43;;;;;;;14.07;3.22;;;;;;;;;;5282222;28;20024;-69
2022/05/12 03:39:14;;;;;;;12.98;3.13;;;;;;;;;;5282429;28;20251;-68
2022/05/12 03:41:45;;;;;;;17.42;3.80;;;;;;;;;;5282577;28;20020;-68
2022/05/12 03:47:06;;;;;;;12.48;4.07;;;;;;;;;;5282608;28;20481;-68
2022/05/12 03:49:38;;;;;;;11.82;3.53;;;;;;;;;;5282620;28;20017;-68
2022/05/12 03:52:09;;;;;;;10.40;3.55;;;;;;;;;;5281437;28;20099;-69
2022/05/12 03:54:40;;;;;;;11.00;4.30;;;;;;;;;;5282265;28;20025;-69
2022/05/12 03:57:12;;;;;;;18.73;5.60;;;;;;;;;;5281891;28;20452;-69
2022/05/12 03:59:44;;;;;;;14.48;5.15;;;;;;;;;;5282187;28;20063;-69
2022/05/12 04:02:16;;;;;;;14.27;4.55;;;;;;;;;;5282095;28;20429;-69
2022/05/12 04:04:48;;;;;;;13.02;4.82;;;;;;;;;;5281229;28;20076;-69
2022/05/12 04:07:21;;;;;;;14.73;4.95;;;;;;;;;;5281730;28;20066;-68
2022/05/12 04:09:52;;;;;;;17.05;5.75;;;;;;;;;;5282453;28;20052;-68
2022/05/12 04:12:23;;;;;;;21.90;7.10;;;;;;;;;;5281045;28;20063;-69
2022/05/12 04:14:55;;;;;;;19.15;6.78;;;;;;;;;;5282382;28;20455;-71
2022/05/12 04:17:26;;;;;;;18.35;6.95;;;;;;;;;;5281389;28;20550;-68
2022/05/12 04:20:00;;;;;;;21.70;6.93;;;;;;;;;;5281647;28;20082;-68
2022/05/12 04:22:32;;;;;;;24.30;7.65;;;;;;;;;;5281987;28;20533;-69
2022/05/12 04:25:03;;;;;;;17.10;7.45;;;;;;;;;;5281882;28;20028;-69
2022/05/12 04:27:35;;;;;;;20.35;8.43;;;;;;;;;;5281038;28;20023;-68
2022/05/12 04:30:07;;;;;;;20.23;8.40;;;;;;;;;;5281855;28;20021;-69
2022/05/12 04:32:39;;;;;;;21.48;8.82;;;;;;;;;;5281017;28;20491;-69
2022/05/12 04:35:15;;;;;;;21.98;8.30;;;;;;;;;;5281870;28;20023;-69
2022/05/12 04:37:50;;;;;;;19.27;7.75;;;;;;;;;;5281603;28;20024;-69
2022/05/12 04:40:21;;;;;;;20.58;8.35;;;;;;;;;;5280655;28;20016;-69
2022/05/12 04:42:54;;;;;;;19.20;9.25;;;;;;;;;;5282276;28;20035;-69
2022/05/12 04:45:26;;;;;;;17.80;8.73;;;;;;;;;;5281440;28;20032;-69
2022/05/12 04:47:58;;;;;;;22.60;9.00;;;;;;;;;;5281129;28;20379;-69
2022/05/12 04:50:30;;;;;;;24.10;9.38;;;;;;;;;;5281057;28;20024;-68
2022/05/12 04:53:02;;;;;;;21.80;9.63;;;;;;;;;;5281703;28;20540;-69
2022/05/12 04:55:33;;;;;;;25.15;11.13;;;;;;;;;;5280815;28;20025;-69
2022/05/12 04:58:05;;;;;;;26.08;10.40;;;;;;;;;;5281663;28;20076;-69
2022/05/12 05:00:38;;;;;;;20.98;10.57;;;;;;;;;;5280755;28;20057;-68
2022/05/12 05:03:09;;;;;;;23.80;10.25;;;;;;;;;;5281126;28;20086;-69
2022/05/12 05:05:41;;;;;;;25.70;11.23;;;;;;;;;;5281147;28;20418;-68
2022/05/12 05:08:13;;;;;;;25.95;11.32;;;;;;;;;;5280654;28;20048;-68
2022/05/12 05:10:44;;;;;;;28.15;12.20;;;;;;;;;;5281411;28;20524;-69
2022/05/12 05:13:18;;;;;;;25.70;11.63;;;;;;;;;;5281256;28;20020;-69
2022/05/12 05:15:50;;;;;;;24.15;12.65;;;;;;;;;;5280633;28;20070;-68
2022/05/12 05:18:22;;;;;;;25.70;12.20;;;;;;;;;;5280767;28;20041;-68
2022/05/12 05:20:54;;;;;;;18.65;11.57;;;;;;;;;;5281571;28;20081;-68
2022/05/12 05:23:25;;;;;;;25.70;12.88;;;;;;;;;;5279769;28;20029;-68
2022/05/12 05:25:57;;;;;;;30.52;13.10;;;;;;;;;;5281320;28;20016;-68
2022/05/12 05:28:28;;;;;;;25.00;12.48;;;;;;;;;;5280009;28;20012;-68
2022/05/12 05:30:59;;;;;;;26.35;13.57;;;;;;;;;;5281301;28;20024;-70
2022/05/12 05:33:30;;;;;;;26.25;12.77;;;;;;;;;;5280635;28;20388;-69
2022/05/12 05:36:02;;;;;;;30.58;14.43;;;;;;;;;;5280244;28;20615;-69
2022/05/12 05:38:33;;;;;;;25.83;13.70;;;;;;;;;;5280807;28;20032;-69
2022/05/12 05:41:04;;;;;;;24.48;12.98;;;;;;;;;;5281117;28;20024;-69
2022/05/12 05:43:35;;;;;;;32.80;14.77;;;;;;;;;;5280402;28;20361;-68
2022/05/12 05:46:06;;;;;;;28.67;14.50;;;;;;;;;;5280962;28;20263;-68
2022/05/12 05:48:38;;;;;;;28.67;14.18;;;;;;;;;;5281367;28;20028;-69
2022/05/12 05:53:58;;;;;;;32.20;15.07;;;;;;;;;;5281307;28;20028;-69
2022/05/12 05:56:30;;;;;;;25.65;14.70;;;;;;;;;;5280567;28;20013;-69
2022/05/12 05:59:01;;;;;;;27.95;16.60;;;;;;;;;;5280084;28;20524;-69
2022/05/12 06:01:32;;;;;;;23.67;14.82;;;;;;;;;;5280555;28;20291;-68
2022/05/12 06:04:03;;;;;;;22.77;16.30;;;;;;;;;;5280139;28;20480;-69
2022/05/12 06:06:34;;;;;;;25.65;14.93;;;;;;;;;;5280500;28;20077;-70
2022/05/12 06:09:05;;;;;;;31.23;16.40;;;;;;;;;;5284594;28;20422;-70
2022/05/12 06:11:37;;;;;;;27.83;16.40;;;;;;;;;;5283730;28;20278;-69
2022/05/12 06:14:08;;;;;;;26.73;15.85;;;;;;;;;;5284397;28;20282;-69
2022/05/12 06:16:39;;;;;;;26.02;16.02;;;;;;;;;;5284470;28;20262;-69
2022/05/12 06:19:10;;;;;;;28.45;16.10;;;;;;;;;;5283319;28;20048;-69
2022/05/12 06:21:42;;;;;;;27.13;16.40;;;;;;;;;;5284219;28;20476;-70
2022/05/12 06:24:13;;;;;;;26.20;15.80;;;;;;;;;;5283977;28;20297;-69
2022/05/12 06:26:44;;;;;;;29.93;17.00;;;;;;;;;;5283386;28;20025;-69
2022/05/12 06:29:15;;;;;;;27.05;16.85;;;;;;;;;;5284287;28;20358;-68
2022/05/12 06:31:47;;;;;;;26.05;16.55;;;;;;;;;;5283166;28;20259;-68
2022/05/12 06:34:19;;;;;;;25.38;15.25;;;;;;;;;;5283721;28;20056;-69
2022/05/12 06:36:51;;;;;;;24.67;15.35;;;;;;;;;;5284251;28;20548;-68
2022/05/12 06:39:22;;;;;;;24.48;15.27;;;;;;;;;;5283251;28;20630;-68
2022/05/12 06:41:54;;;;;;;22.23;14.27;;;;;;;;;;5266596;28;20024;-68
2022/05/12 06:44:25;;;;;;;23.92;15.25;;;;;;;;;;5261698;28;20291;-68
2022/05/12 06:46:56;;;;;;;21.67;13.73;;;;;;;;;;5274524;28;20043;-69
2022/05/12 06:49:28;;;;;;;22.70;14.63;;;;;;;;;;5281520;28;20641;-70
2022/05/12 06:51:59;;;;;;;22.70;14.52;;;;;;;;;;5283076;28;20028;-69
2022/05/12 06:54:31;;;;;;;19.60;12.98;;;;;;;;;;5281885;28;20128;-68
2022/05/12 06:57:03;;;;;;;23.48;14.30;;;;;;;;;;5282865;28;20111;-68
2022/05/12 06:59:39;;;;;;;20.20;13.98;;;;;;;;;;5282604;28;20131;-69
2022/05/12 07:02:10;;;;;;;20.15;13.95;;;;;;;;;;5281774;28;20022;-67
2022/05/12 07:04:41;;;;;;;23.90;14.80;;;;;;;;;;5282728;28;20032;-67
2022/05/12 07:07:13;;;;;;;19.80;13.13;;;;;;;;;;5281967;28;20286;-68
2022/05/12 07:09:44;;;;;;;20.52;12.55;;;;;;;;;;5268195;28;20040;-67
2022/05/12 07:12:16;;;;;;;23.73;14.00;;;;;;;;;;5278565;28;20017;-67
2022/05/12 07:14:47;;;;;;;21.95;12.68;;;;;;;;;;5282397;28;20271;-68
2022/05/12 07:17:19;;;;;;;19.27;13.38;;;;;;;;;;5282854;28;20039;-70
2022/05/12 07:19:52;;;;;;;18.75;12.00;;;;;;;;;;5282310;28;20388;-68
2022/05/12 07:28:04;;;;;;;19.05;11.88;;;;;;;;;;5282302;28;20024;-68
2022/05/12 07:31:00;;;;;;;16.92;10.68;;;;;;;;;;5282865;28;20107;-68
2022/05/12 07:33:27;;;;;;;14.48;10.20;;;;;;;;;;5282410;28;20074;-68
2022/05/12 07:35:59;;;;;;;20.20;11.13;;;;;;;;;;5282215;28;20107;-68
2022/05/12 07:38:31;;;;;;;20.48;11.55;;;;;;;;;;5282516;28;20031;-69
2022/05/12 07:41:04;;;;;;;18.42;10.65;;;;;;;;;;5282488;28;20020;-69
2022/05/12 07:43:35;;;;;;;16.13;9.40;;;;;;;;;;5281836;28;20502;-68
2022/05/12 07:46:06;;;;;;;11.32;7.97;;;;;;;;;;5282733;28;20024;-68
2022/05/12 07:48:39;;;;;;;15.65;8.05;;;;;;;;;;5282686;28;20271;-68
2022/05/12 07:51:10;;;;;;;17.65;7.53;;;;;;;;;;5281692;28;20017;-69
2022/05/12 07:53:41;;;;;;;13.00;7.32;;;;;;;;;;5282492;28;20028;-68
2022/05/12 07:56:14;;;;;;;14.15;7.15;;;;;;;;;;5281443;28;20017;-69
2022/05/12 07:58:46;;;;;;;13.77;7.45;;;;;;;;;;5282500;28;20021;-69
2022/05/12 08:01:18;;;;;;;11.65;6.65;;;;;;;;;;5282403;28;20023;-68
2022/05/12 08:03:50;;;;;;;13.80;8.90;;;;;;;;;;5281752;28;20028;-67
2022/05/12 08:06:21;;;;;;;14.23;6.82;;;;;;;;;;5281779;28;20074;-69
2022/05/12 08:08:53;;;;;;;10.13;5.80;;;;;;;;;;5282670;28;20032;-68
2022/05/12 08:11:24;;;;;;;9.85;5.38;;;;;;;;;;5281234;28;20027;-68
2022/05/12 08:13:56;;;;;;;15.07;6.20;;;;;;;;;;5282525;28;20027;-68
2022/05/12 08:16:27;;;;;;;14.50;7.10;;;;;;;;;;5281803;28;20074;-69
2022/05/12 08:18:58;;;;;;;11.52;6.18;;;;;;;;;;5281240;28;20049;-69
2022/05/12 08:21:29;;;;;;;8.93;5.20;;;;;;;;;;5281897;28;20039;-69
2022/05/12 08:24:00;;;;;;;8.32;6.30;;;;;;;;;;5282094;28;20299;-69
2022/05/12 08:26:33;;;;;;;11.00;7.00;;;;;;;;;;5281146;28;20028;-68
2022/05/12 08:29:04;;;;;;;12.93;6.00;;;;;;;;;;5281984;28;20255;-68
2022/05/12 08:31:35;;;;;;;11.50;3.93;;;;;;;;;;5280766;28;20515;-68
2022/05/12 08:34:06;;;;;;;6.30;3.70;;;;;;;;;;5281772;28;20258;-67
2022/05/12 08:36:37;;;;;;;13.50;4.03;;;;;;;;;;5281930;28;20741;-68
2022/05/12 08:39:08;;;;;;;8.57;3.20;;;;;;;;;;5281066;28;20285;-68
2022/05/12 08:41:46;;;;;;;8.60;3.90;;;;;;;;;;5281841;28;20470;-68
2022/05/12 08:44:20;;;;;;;6.93;4.38;;;;;;;;;;5281607;28;20111;-68
2022/05/12 08:46:57;;;;;;;6.18;3.25;;;;;;;;;;5280048;28;20021;-68
2022/05/12 08:49:30;;;;;;;8.32;2.28;;;;;;;;;;5280333;28;20111;-68
2022/05/12 08:52:12;;;;;;;10.77;2.88;;;;;;;;;;5281085;28;20031;-68
2022/05/12 08:54:49;;;;;;;5.28;1.42;;;;;;;;;;5280508;28;20025;-68
2022/05/12 08:57:30;;;;;;;5.03;1.15;;;;;;;;;;5281455;28;20052;-69
2022/05/12 09:00:05;;;;;;;7.93;2.90;;;;;;;;;;5280962;28;20021;-69
2022/05/12 09:02:46;;;;;;;4.53;2.55;;;;;;;;;;5281409;28;20044;-69
2022/05/12 09:05:18;;;;;;;6.50;1.90;;;;;;;;;;5281602;28;20055;-69
2022/05/12 09:07:49;;;;;;;7.00;2.78;;;;;;;;;;5281065;28;20024;-68
2022/05/12 09:10:39;;;;;;;11.35;2.90;;;;;;;;;;5281245;28;20384;-69
2022/05/12 09:13:19;;;;;;;6.95;2.40;;;;;;;;;;5281350;28;20025;-69
2022/05/12 09:15:56;;;;;;;6.82;2.60;;;;;;;;;;5281090;28;20081;-69
2022/05/12 09:18:31;;;;;;;6.97;1.85;;;;;;;;;;5281015;28;20385;-68
2022/05/12 09:21:05;;;;;;;5.43;2.53;;;;;;;;;;5280555;28;20028;-68
2022/05/12 09:23:37;;;;;;;7.40;2.30;;;;;;;;;;5281179;28;20479;-68
2022/05/12 09:26:27;;;;;;;6.85;2.05;;;;;;;;;;5281250;28;20134;-68
2022/05/12 09:29:08;;;;;;;6.65;2.42;;;;;;;;;;5280916;28;20069;-68
2022/05/12 09:31:41;;;;;;;6.35;2.13;;;;;;;;;;5281287;28;20089;-68
2022/05/12 09:34:24;;;;;;;4.32;1.80;;;;;;;;;;5281049;28;20023;-68
2022/05/12 09:36:55;;;;;;;6.88;2.25;;;;;;;;;;5280796;28;20025;-68
2022/05/12 09:39:31;;;;;;;7.55;2.25;;;;;;;;;;5280594;28;20052;-68
2022/05/12 09:42:03;;;;;;;7.05;1.60;;;;;;;;;;5281464;28;20017;-68
2022/05/12 09:44:35;;;;;;;7.93;2.50;;;;;;;;;;5284989;28;20032;-68
2022/05/12 09:47:16;;;;;;;7.68;1.98;;;;;;;;;;5284780;28;20020;-67
2022/05/12 09:49:47;;;;;;;7.63;2.30;;;;;;;;;;5284254;28;20029;-69
2022/05/12 09:52:21;;;;;;;6.20;2.20;;;;;;;;;;5284682;28;20379;-69
2022/05/12 09:55:07;;;;;;;6.88;1.52;;;;;;;;;;5285219;28;20463;-68
2022/05/12 09:57:58;;;;;;;4.75;0.90;;;;;;;;;;5284331;28;20519;-69
2022/05/12 10:00:29;;;;;;;4.72;1.05;;;;;;;;;;5284431;28;20103;-68
2022/05/12 10:09:08;;;;;;;4.90;0.87;;;;;;;;;;5284788;28;20028;-68
2022/05/12 10:11:52;;;;;;;6.45;0.50;;;;;;;;;;5283477;28;20715;-69
2022/05/12 10:14:29;;;;;;;7.05;0.70;;;;;;;;;;5284364;28;20024;-67
2022/05/12 10:17:02;;;;;;;6.75;0.68;;;;;;;;;;5283616;28;20456;-68
2022/05/12 10:19:36;;;;;;;4.15;0.93;;;;;;;;;;5284198;28;20036;-68
2022/05/12 10:22:10;;;;;;;4.30;0.85;;;;;;;;;;5284582;28;20020;-68
2022/05/12 10:24:51;;;;;;;3.65;1.00;;;;;;;;;;5283460;28;20025;-67
2022/05/12 10:27:29;;;;;;;5.57;1.10;;;;;;;;;;5283820;28;20027;-67
2022/05/12 10:30:03;;;;;;;4.30;0.90;;;;;;;;;;5282430;28;20494;-67
2022/05/12 10:32:37;;;;;;;3.75;0.90;;;;;;;;;;5283053;28;20017;-68
2022/05/12 10:35:22;;;;;;;3.83;1.00;;;;;;;;;;5283955;28;20029;-67
2022/05/12 10:38:07;;;;;;;6.60;1.15;;;;;;;;;;5283999;28;20452;-68
2022/05/12 10:40:58;;;;;;;4.88;1.20;;;;;;;;;;5283895;28;20107;-68
2022/05/12 10:43:39;;;;;;;4.90;0.82;;;;;;;;;;5283529;28;20447;-68
2022/05/12 10:46:13;;;;;;;2.40;0.80;;;;;;;;;;5282632;28;20532;-67
2022/05/12 10:48:48;;;;;;;5.00;0.85;;;;;;;;;;5283545;28;20107;-68
2022/05/12 10:51:24;;;;;;;6.82;0.77;;;;;;;;;;5283335;28;20012;-69
2022/05/12 10:53:56;;;;;;;5.70;0.90;;;;;;;;;;5282736;28;20021;-70
2022/05/12 10:56:37;;;;;;;6.07;1.70;;;;;;;;;;5283217;28;20017;-68
2022/05/12 10:59:25;;;;;;;3.50;0.60;;;;;;;;;;5282888;28;20031;-68
2022/05/12 11:02:14;;;;;;;5.93;0.88;;;;;;;;;;5284207;28;20411;-68
2022/05/12 11:04:45;;;;;;;;;;;;;;;;;;5283721;28;20044;-68
2022/05/12 11:07:25;;;;;;;6.88;1.60;;;;;;;;;;5282655;28;19908;-67
2022/05/12 11:10:02;;;;;;;6.22;1.02;;;;;;;;;;5283662;28;20021;-67
2022/05/12 11:12:39;;;;;;;5.43;1.10;;;;;;;;;;5283306;28;20077;-67
2022/05/12 11:15:13;;;;;;;4.32;0.70;;;;;;;;;;5282112;28;20023;-68
2022/05/12 11:17:49;;;;;;;3.47;0.60;;;;;;;;;;5283192;28;20056;-68
2022/05/12 11:20:31;;;;;;;5.63;0.70;;;;;;;;;;5282029;28;20023;-68
2022/05/12 11:23:21;;;;;;;6.20;0.80;;;;;;;;;;5283209;28;20029;-68
2022/05/12 11:25:58;;;;;;;3.13;0.88;;;;;;;;;;5283421;28;20163;-68
2022/05/12 11:31:39;;;;;;;4.82;0.70;;;;;;;;;;5283250;28;20024;-69
2022/05/12 11:34:15;;;;;;;5.22;0.65;;;;;;;;;;5282514;28;20050;-68
2022/05/12 11:36:48;;;;;;;8.57;0.70;;;;;;;;;;5282946;28;20040;-67
2022/05/12 11:39:21;;;;;;;5.35;0.73;;;;;;;;;;5282713;28;20458;-68
2022/05/12 11:42:11;;;;;;;4.55;0.90;;;;;;;;;;5282275;28;20024;-68
2022/05/12 11:44:56;;;;;;;5.75;0.55;;;;;;;;;;5282786;28;20036;-67
2022/05/12 11:47:40;;;;;;;3.20;0.63;;;;;;;;;;5282308;28;20406;-68
2022/05/12 11:50:14;;;;;;;4.32;0.68;;;;;;;;;;5281761;28;20080;-68
2022/05/12 11:52:58;;;;;;;4.57;0.50;;;;;;;;;;5282292;28;20024;-66
2022/05/12 11:55:29;;;;;;;7.13;0.60;;;;;;;;;;5281215;28;20024;-69
2022/05/12 11:58:04;;;;;;;5.78;0.80;;;;;;;;;;5282752;28;20380;-68
2022/05/12 12:00:35;;;;;;;3.75;1.15;;;;;;;;;;5282444;28;20017;-68
2022/05/12 12:03:18;;;;;;;2.72;0.47;;;;;;;;;;5281276;28;20016;-68
2022/05/12 12:05:49;;;;;;;5.25;0.65;;;;;;;;;;5281954;28;20040;-68
2022/05/12 12:08:30;;;;;;;3.53;0.75;;;;;;;;;;5281674;28;20017;-68
2022/05/12 12:11:13;;;;;;;2.65;0.47;;;;;;;;;;5281650;28;20436;-68
2022/05/12 12:13:45;;;;;;;5.40;0.50;;;;;;;;;;5282124;28;20027;-67
2022/05/12 12:16:18;;;;;;;1.95;0.45;;;;;;;;;;5282097;28;20464;-67
2022/05/12 12:18:49;;;;;;;2.65;0.40;;;;;;;;;;5281202;28;20044;-68
2022/05/12 12:21:38;;;;;;;3.67;0.40;;;;;;;;;;5281469;28;20093;-68
2022/05/12 12:24:19;;;;;;;4.60;0.50;;;;;;;;;;5280877;28;20028;-68
2022/05/12 12:26:54;;;;;;;3.25;0.50;;;;;;;;;;5280571;28;20028;-68
2022/05/12 12:29:55;;;;;;;1.98;0.40;;;;;;;;;;5281055;28;20024;-68
2022/05/12 12:32:33;;;;;;;2.85;0.40;;;;;;;;;;5275023;28;20032;-68
2022/05/12 12:35:13;;;;;;;2.70;0.65;;;;;;;;;;5280877;28;20490;-68
2022/05/12 12:37:48;;;;;;;7.28;0.60;;;;;;;;;;5280257;28;20016;-68
2022/05/12 12:40:32;;;;;;;4.00;0.50;;;;;;;;;;5281290;28;20386;-68
2022/05/12 12:43:20;;;;;;;3.85;0.50;;;;;;;;;;5281691;28;20024;-68
2022/05/12 12:45:53;;;;;;;5.53;1.38;;;;;;;;;;5281456;28;20107;-68
2022/05/12 12:48:28;;;;;;;5.30;0.52;;;;;;;;;;5280280;28;20016;-67
2022/05/12 12:51:01;;;;;;;5.18;0.60;;;;;;;;;;5281027;28;20071;-67
2022/05/12 12:56:30;;;;;;;6.30;0.70;;;;;;;;;;5279100;28;20036;-67
2022/05/12 12:59:22;;;;;;;6.53;0.85;;;;;;;;;;5278571;28;20754;-66
2022/05/12 13:01:59;;;;;;;6.95;0.60;;;;;;;;;;5279301;28;20085;-67
2022/05/12 13:04:32;;;;;;;3.40;0.60;;;;;;;;;;5278745;28;20082;-67
2022/05/12 13:07:06;;;;;;;3.67;0.50;;;;;;;;;;5278921;28;20016;-66
2022/05/12 13:09:39;;;;;;;3.75;0.70;;;;;;;;;;5281175;28;20435;-67
2022/05/12 13:12:10;;;;;;;5.43;0.70;;;;;;;;;;5279898;28;20091;-67
2022/05/12 13:14:42;;;;;;;3.78;0.60;;;;;;;;;;5279541;28;20111;-68
2022/05/12 13:17:27;;;;;;;5.30;0.50;;;;;;;;;;5284273;28;20069;-67
2022/05/12 13:19:58;;;;;;;3.03;0.63;;;;;;;;;;5284834;28;20550;-68
2022/05/12 13:22:32;;;;;;;3.40;0.68;;;;;;;;;;5284617;28;20073;-68
2022/05/12 13:25:03;;;;;;;2.47;0.50;;;;;;;;;;5284926;28;20028;-68
2022/05/12 13:27:35;;;;;;;7.07;0.60;;;;;;;;;;5284655;28;20066;-68
2022/05/12 13:30:13;;;;;;;4.72;0.77;;;;;;;;;;5285354;28;20027;-68
2022/05/12 13:32:47;;;;;;;4.55;0.50;;;;;;;;;;5285351;28;20024;-67
2022/05/12 13:35:20;;;;;;;6.43;0.50;;;;;;;;;;5284267;28;20021;-67
2022/05/12 13:37:54;;;;;;;3.92;0.40;;;;;;;;;;5285359;28;20031;-66
2022/05/12 13:40:44;;;;;;;3.30;0.50;;;;;;;;;;5284809;28;20032;-67
2022/05/12 13:43:20;;;;;;;3.95;0.43;;;;;;;;;;5284282;28;20103;-68
2022/05/12 13:46:03;;;;;;;6.57;0.40;;;;;;;;;;5285369;28;20459;-68
2022/05/12 13:48:36;;;;;;;2.53;0.40;;;;;;;;;;5283884;28;20020;-67
2022/05/12 13:51:07;;;;;;;2.63;0.60;;;;;;;;;;5285189;28;20009;-68
2022/05/12 13:53:47;;;;;;;3.25;0.40;;;;;;;;;;5284687;28;20027;-68
2022/05/12 13:56:26;;;;;;;9.93;0.57;;;;;;;;;;5283426;28;20040;-69
2022/05/12 13:58:58;;;;;;;5.35;0.50;;;;;;;;;;5284979;28;20104;-69
2022/05/12 14:01:32;;;;;;;6.90;0.98;;;;;;;;;;5284091;28;20040;-68
2022/05/12 14:04:07;;;;;;;3.72;0.50;;;;;;;;;;5283991;28;20493;-68
2022/05/12 14:06:39;;;;;;;4.57;0.60;;;;;;;;;;5284710;28;20016;-68
2022/05/12 14:09:19;;;;;;;3.30;0.73;;;;;;;;;;5283757;28;20017;-68
2022/05/12 14:11:57;;;;;;;2.78;0.40;;;;;;;;;;5284990;28;20025;-68
2022/05/12 14:20:10;;;;;;;3.33;0.65;;;;;;;;;;5284491;28;20036;-68
2022/05/12 14:22:42;;;;;;;5.32;0.82;;;;;;;;;;5284269;28;20020;-68
2022/05/12 14:25:13;;;;;;;5.30;0.77;;;;;;;;;;5281217;28;20387;-69
2022/05/12 14:27:45;;;;;;;9.67;0.90;;;;;;;;;;5273046;28;20025;-69
2022/05/12 14:30:16;;;;;;;6.03;0.60;;;;;;;;;;5279424;28;20355;-70
2022/05/12 14:32:49;;;;;;;4.60;0.60;;;;;;;;;;5279427;28;20017;-69
2022/05/12 14:35:22;;;;;;;2.47;0.55;;;;;;;;;;5282776;28;20561;-71
2022/05/12 14:37:53;;;;;;;2.03;0.60;;;;;;;;;;5281114;28;20029;-68
2022/05/12 14:40:28;;;;;;;5.05;1.25;;;;;;;;;;5283773;28;20016;-69
2022/05/12 14:42:59;;;;;;;4.60;0.60;;;;;;;;;;5284578;28;20031;-68
2022/05/12 14:45:30;;;;;;;3.95;0.52;;;;;;;;;;5283020;28;20032;-68
2022/05/12 14:48:04;;;;;;;5.30;0.60;;;;;;;;;;5284080;28;20013;-69
2022/05/12 14:50:35;;;;;;;4.82;1.05;;;;;;;;;;5283837;28;20801;-69
2022/05/12 14:53:10;;;;;;;7.03;0.50;;;;;;;;;;5283243;28;20092;-69
2022/05/12 14:55:41;;;;;;;11.00;1.08;;;;;;;;;;5283934;28;20025;-69
2022/05/12 14:58:12;;;;;;;4.32;0.60;;;;;;;;;;5282980;28;20013;-69
2022/05/12 15:00:43;;;;;;;5.20;0.60;;;;;;;;;;5283755;28;20033;-69
2022/05/12 15:03:15;;;;;;;6.28;0.77;;;;;;;;;;5283510;28;20305;-68
2022/05/12 15:05:46;;;;;;;7.45;0.60;;;;;;;;;;5282831;28;20024;-69
2022/05/12 15:08:18;;;;;;;3.88;0.60;;;;;;;;;;5283392;28;20023;-68
2022/05/12 15:10:49;;;;;;;3.47;0.43;;;;;;;;;;5283614;28;20486;-68
2022/05/12 15:13:20;;;;;;;3.08;0.60;;;;;;;;;;5282232;28;20479;-68
2022/05/12 15:15:54;;;;;;;4.60;1.00;;;;;;;;;;5283870;28;20463;-67
2022/05/12 15:18:25;;;;;;;3.88;0.70;;;;;;;;;;5282985;28;20097;-68
2022/05/12 15:20:56;;;;;;;5.57;0.60;;;;;;;;;;5282889;28;20055;-69
2022/05/12 15:23:28;;;;;;;8.93;0.60;;;;;;;;;;5282937;28;20286;-69
2022/05/12 15:25:59;;;;;;;4.40;0.50;;;;;;;;;;5283560;28;20135;-68
2022/05/12 15:28:30;;;;;;;4.10;0.55;;;;;;;;;;5282411;28;20091;-69
2022/05/12 15:31:02;;;;;;;4.53;0.50;;;;;;;;;;5283296;28;20031;-69
2022/05/12 15:33:33;;;;;;;6.65;0.60;;;;;;;;;;5282213;28;20055;-69
2022/05/12 15:36:04;;;;;;;5.82;0.50;;;;;;;;;;5283162;28;20017;-68
2022/05/12 15:38:36;;;;;;;3.10;0.63;;;;;;;;;;5282564;28;20077;-69
2022/05/12 15:41:07;;;;;;;2.90;0.55;;;;;;;;;;5281474;28;20020;-69
2022/05/12 15:43:38;;;;;;;5.88;0.50;;;;;;;;;;5282983;28;20079;-69